createdAt,value
2023-01-10T00:02:21.453Z,59.91
2023-01-10T00:04:50.093Z,60.09
2023-01-10T00:07:20.158Z,60.03
2023-01-10T00:09:50.114Z,59.98
2023-01-10T00:12:37.611Z,60.10
2023-01-10T00:15:07.204Z,59.93
2023-01-10T00:17:37.199Z,59.97
2023-01-10T00:20:07.036Z,59.72
2023-01-10T00:22:35.819Z,59.31
2023-01-10T00:25:06.126Z,59.41
2023-01-10T00:27:35.780Z,59.52
2023-01-10T00:30:08.757Z,59.57
2023-01-10T00:32:38.544Z,59.30
2023-01-10T00:35:09.264Z,59.46
2023-01-10T00:37:38.874Z,58.95
2023-01-10T00:40:08.911Z,58.90
2023-01-10T00:42:56.661Z,58.59
2023-01-10T00:45:26.657Z,58.41
2023-01-10T00:47:55.404Z,57.79
2023-01-10T00:50:24.162Z,57.96
2023-01-10T00:52:52.883Z,58.32
2023-01-10T00:55:21.650Z,58.31
2023-01-10T00:57:50.897Z,57.91
2023-01-10T01:00:20.312Z,57.76
2023-01-10T01:02:51.586Z,57.72
2023-01-10T01:05:20.460Z,57.75
2023-01-10T01:07:52.610Z,57.69
2023-01-10T01:10:27.278Z,57.61
2023-01-10T01:12:59.757Z,57.66
2023-01-10T01:15:29.351Z,57.81
2023-01-10T01:17:58.079Z,57.88
2023-01-10T01:20:27.261Z,57.86
2023-01-10T01:22:56.032Z,57.88
2023-01-10T01:25:24.773Z,57.97
2023-01-10T01:27:53.960Z,57.93
2023-01-10T01:30:23.149Z,57.74
2023-01-10T01:32:53.084Z,57.96
2023-01-10T01:35:25.043Z,58.05
2023-01-10T01:37:55.305Z,58.31
2023-01-10T01:40:24.079Z,58.57
2023-01-10T01:42:55.995Z,58.64
2023-01-10T01:45:37.636Z,58.59
2023-01-10T01:48:21.866Z,58.90
2023-01-10T01:50:56.082Z,59.05
2023-01-10T01:53:41.496Z,59.15
2023-01-10T01:56:18.121Z,59.35
2023-01-10T01:58:52.041Z,59.71
2023-01-10T02:01:22.251Z,59.80
2023-01-10T02:03:55.633Z,60.01
2023-01-10T02:06:26.665Z,60.22
2023-01-10T02:09:05.035Z,60.41
2023-01-10T02:11:35.218Z,60.63
2023-01-10T02:14:04.972Z,60.64
2023-01-10T02:16:33.677Z,60.73
2023-01-10T02:19:02.565Z,61.00
2023-01-10T02:21:39.670Z,61.26
2023-01-10T02:24:25.615Z,61.48
2023-01-10T02:27:01.991Z,61.80
2023-01-10T02:30:00.538Z,61.94
2023-01-10T02:33:00.529Z,61.93
2023-01-10T02:35:56.852Z,62.08
2023-01-10T02:38:41.506Z,62.25
2023-01-10T02:41:24.637Z,62.26
2023-01-10T02:44:18.276Z,62.43
2023-01-10T02:46:47.045Z,62.34
2023-01-10T02:49:15.931Z,62.43
2023-01-10T02:51:44.656Z,62.47
2023-01-10T02:54:21.842Z,62.48
2023-01-10T02:57:23.536Z,62.59
2023-01-10T03:00:16.045Z,62.52
2023-01-10T03:03:08.062Z,62.13
2023-01-10T03:05:59.105Z,61.95
2023-01-10T03:08:46.372Z,61.60
2023-01-10T03:11:15.177Z,61.58
2023-01-10T03:13:52.823Z,61.72
2023-01-10T03:16:27.716Z,61.84
2023-01-10T03:19:06.499Z,62.08
2023-01-10T03:21:36.718Z,62.17
2023-01-10T03:24:18.987Z,62.34
2023-01-10T03:27:04.346Z,62.20
2023-01-10T03:29:39.778Z,61.91
2023-01-10T03:32:08.433Z,61.89
2023-01-10T03:34:37.281Z,62.04
2023-01-10T03:37:17.402Z,62.29
2023-01-10T03:40:00.963Z,62.56
2023-01-10T03:43:09.191Z,62.76
2023-01-10T03:45:49.762Z,62.92
2023-01-10T03:48:18.471Z,63.01
2023-01-10T03:50:47.391Z,63.05
2023-01-10T03:53:16.051Z,63.27
2023-01-10T03:55:46.508Z,63.23
2023-01-10T03:58:17.192Z,63.23
2023-01-10T04:00:45.857Z,63.18
2023-01-10T04:03:16.809Z,63.28
2023-01-10T04:06:04.317Z,63.49
2023-01-10T04:08:33.892Z,63.58
2023-01-10T04:11:02.691Z,64.09
2023-01-10T04:13:31.732Z,64.25
2023-01-10T04:16:01.632Z,64.44
2023-01-10T04:18:30.567Z,64.70
2023-01-10T04:20:59.463Z,64.80
2023-01-10T04:23:28.195Z,65.14
2023-01-10T04:25:56.920Z,65.19
2023-01-10T04:28:25.547Z,65.35
2023-01-10T04:30:54.511Z,65.57
2023-01-10T04:33:23.159Z,65.63
2023-01-10T04:35:52.189Z,65.71
2023-01-10T04:38:20.863Z,65.75
2023-01-10T04:40:55.223Z,65.78
2023-01-10T04:43:24.664Z,65.65
2023-01-10T04:45:54.327Z,65.51
2023-01-10T04:48:23.799Z,65.68
2023-01-10T04:50:53.456Z,65.65
2023-01-10T04:53:22.114Z,65.65
2023-01-10T04:55:51.468Z,65.65
2023-01-10T04:58:21.320Z,65.79
2023-01-10T05:00:50.566Z,66.02
2023-01-10T05:03:20.023Z,66.13
2023-01-10T05:05:50.305Z,66.09
2023-01-10T05:08:19.315Z,66.24
2023-01-10T05:10:48.048Z,66.38
2023-01-10T05:13:17.447Z,66.57
2023-01-10T05:15:46.535Z,66.54
2023-01-10T05:18:15.669Z,66.52
2023-01-10T05:20:44.525Z,66.46
2023-01-10T05:23:13.406Z,66.31
2023-01-10T05:25:42.609Z,66.39
2023-01-10T05:28:12.318Z,66.43
2023-01-10T05:30:42.630Z,66.59
2023-01-10T05:33:11.163Z,66.85
2023-01-10T05:35:39.860Z,67.17
2023-01-10T05:38:10.146Z,67.39
2023-01-10T05:40:38.867Z,67.87
2023-01-10T05:43:08.063Z,68.33
2023-01-10T05:45:38.326Z,68.77
2023-01-10T05:48:07.353Z,68.89
2023-01-10T05:50:37.356Z,69.13
2023-01-10T05:53:06.725Z,69.14
2023-01-10T05:55:36.295Z,69.33
2023-01-10T05:58:06.111Z,69.65
2023-01-10T06:00:36.657Z,69.61
2023-01-10T06:03:05.825Z,69.80
2023-01-10T06:05:34.651Z,69.91
2023-01-10T06:08:05.353Z,70.05
2023-01-10T06:10:34.171Z,70.27
2023-01-10T06:13:02.814Z,70.37
2023-01-10T06:15:32.412Z,70.62
2023-01-10T06:18:02.927Z,70.71
2023-01-10T06:20:31.988Z,70.92
2023-01-10T06:23:04.517Z,71.01
2023-01-10T06:25:36.573Z,70.88
2023-01-10T06:28:08.887Z,70.88
2023-01-10T06:30:37.998Z,70.77
2023-01-10T06:33:07.671Z,70.84
2023-01-10T06:35:36.797Z,70.48
2023-01-10T06:38:05.588Z,70.06
2023-01-10T06:40:34.037Z,69.97
2023-01-10T06:43:02.899Z,69.97
2023-01-10T06:45:31.719Z,69.28
2023-01-10T06:48:00.912Z,69.20
2023-01-10T06:50:29.932Z,69.15
2023-01-10T06:53:00.443Z,69.22
2023-01-10T06:55:29.158Z,69.52
2023-01-10T06:58:04.413Z,69.15
2023-01-10T07:00:34.274Z,68.91
2023-01-10T07:03:03.345Z,68.69
2023-01-10T07:05:34.095Z,68.27
2023-01-10T07:08:03.329Z,68.54
2023-01-10T07:10:32.922Z,68.41
2023-01-10T07:13:02.087Z,68.13
2023-01-10T07:15:31.804Z,68.63
2023-01-10T07:18:00.876Z,68.63
2023-01-10T07:20:30.219Z,68.75
2023-01-10T07:23:00.365Z,68.89
2023-01-10T07:25:30.109Z,68.89
2023-01-10T07:27:58.908Z,68.92
2023-01-10T07:30:27.624Z,68.93
2023-01-10T07:32:57.544Z,68.92
2023-01-10T07:35:26.397Z,69.02
2023-01-10T07:37:59.977Z,69.11
2023-01-10T07:40:28.937Z,69.11
2023-01-10T07:43:00.852Z,68.97
2023-01-10T07:45:30.552Z,68.83
2023-01-10T07:48:01.388Z,68.83
2023-01-10T07:50:34.064Z,68.78
2023-01-10T07:53:05.653Z,68.93
2023-01-10T07:55:38.592Z,68.58
2023-01-10T07:58:08.348Z,68.94
2023-01-10T08:00:39.285Z,68.94
2023-01-10T08:03:09.895Z,68.79
2023-01-10T08:05:38.982Z,68.59
2023-01-10T08:08:09.696Z,68.59
2023-01-10T08:10:39.905Z,68.44
2023-01-10T08:13:18.444Z,68.77
2023-01-10T08:15:40.632Z,68.77
2023-01-10T08:18:10.750Z,67.92
2023-01-10T08:20:39.548Z,67.83
2023-01-10T08:23:08.273Z,67.86
2023-01-10T08:25:39.578Z,67.57
2023-01-10T08:28:08.758Z,67.38
2023-01-10T08:30:37.717Z,66.81
2023-01-10T08:33:07.006Z,67.09
2023-01-10T08:35:40.312Z,67.09
2023-01-10T08:38:10.281Z,67.19
2023-01-10T08:40:39.156Z,67.26
2023-01-10T08:43:11.256Z,67.00
2023-01-10T08:45:40.498Z,66.66
2023-01-10T08:48:10.601Z,66.66
2023-01-10T08:50:39.359Z,66.33
2023-01-10T08:53:08.509Z,66.31
2023-01-10T08:55:38.019Z,65.79
2023-01-10T08:58:07.363Z,66.08
2023-01-10T09:00:36.310Z,65.90
2023-01-10T09:03:09.727Z,66.10
2023-01-10T09:05:40.998Z,65.42
2023-01-10T09:08:10.408Z,64.86
2023-01-10T09:10:39.055Z,64.82
2023-01-10T09:13:09.431Z,64.74
2023-01-10T09:15:40.812Z,63.84
2023-01-10T09:18:11.959Z,63.76
2023-01-10T09:20:41.902Z,63.64
2023-01-10T09:23:15.667Z,62.98
2023-01-10T09:25:44.945Z,62.99
2023-01-10T09:28:14.631Z,62.65
2023-01-10T09:30:43.514Z,62.39
2023-01-10T09:33:12.552Z,61.70
2023-01-10T09:35:42.673Z,62.01
2023-01-10T09:38:16.800Z,61.70
2023-01-10T09:41:14.458Z,62.12
2023-01-10T09:43:59.272Z,61.04
2023-01-10T09:46:45.850Z,61.21
2023-01-10T09:49:50.300Z,61.28
2023-01-10T09:52:24.264Z,60.88
2023-01-10T09:54:53.503Z,61.18
2023-01-10T09:57:22.936Z,61.25
2023-01-10T09:59:54.051Z,61.32
2023-01-10T10:02:43.188Z,60.81
2023-01-10T10:05:19.112Z,60.80
2023-01-10T10:07:52.791Z,60.76
2023-01-10T10:10:26.180Z,60.88
2023-01-10T10:13:19.877Z,60.30
2023-01-10T10:16:21.860Z,60.22
2023-01-10T17:49:27.718Z,50.42
2023-01-10T17:51:58.832Z,50.54
2023-01-10T17:54:27.998Z,50.48
2023-01-10T17:56:57.814Z,50.47
2023-01-10T17:59:27.289Z,50.91
2023-01-10T18:01:56.477Z,51.27
2023-01-10T18:04:26.128Z,52.13
2023-01-10T18:06:54.992Z,52.73
2023-01-10T18:09:25.111Z,53.27
2023-01-10T18:11:55.877Z,54.09
2023-01-10T18:14:38.713Z,54.82
2023-01-10T18:17:10.704Z,55.48
2023-01-10T18:19:41.188Z,55.97
2023-01-10T18:22:28.479Z,56.90
2023-01-10T18:24:57.532Z,57.61
2023-01-10T18:27:26.837Z,58.78
2023-01-10T18:29:56.256Z,60.21
2023-01-10T18:32:27.019Z,60.80
2023-01-10T18:34:55.631Z,62.45
2023-01-10T18:37:24.695Z,63.16
2023-01-10T18:39:54.909Z,64.94
2023-01-10T18:42:25.031Z,65.32
2023-01-10T18:44:54.264Z,65.99
2023-01-10T18:47:23.736Z,66.72
2023-01-10T18:49:52.916Z,67.36
2023-01-10T18:52:25.035Z,69.44
2023-01-10T18:54:53.588Z,71.09
2023-01-10T18:57:24.187Z,72.19
2023-01-10T18:59:53.482Z,72.87
2023-01-10T19:02:24.658Z,73.46
2023-01-10T19:04:53.691Z,73.81
2023-01-10T19:07:26.678Z,74.19
2023-01-10T19:09:56.017Z,74.28
2023-01-10T19:12:25.269Z,74.37
2023-01-10T19:14:55.221Z,74.72
2023-01-10T19:17:24.865Z,75.81
2023-01-10T19:19:55.204Z,75.81
2023-01-10T19:22:24.930Z,75.76
2023-01-10T19:24:54.739Z,75.94
2023-01-10T19:27:23.912Z,76.32
2023-01-10T19:29:53.400Z,76.47
2023-01-10T19:32:22.402Z,76.83
2023-01-10T19:34:51.711Z,76.88
2023-01-10T19:37:21.564Z,77.01
2023-01-10T19:39:51.234Z,77.01
2023-01-10T19:42:20.697Z,77.04
2023-01-10T19:44:50.346Z,76.49
2023-01-10T19:47:20.692Z,76.49
2023-01-10T19:49:50.833Z,76.64
2023-01-10T19:52:20.211Z,76.83
2023-01-10T19:54:49.282Z,77.00
2023-01-10T19:57:18.477Z,77.27
2023-01-10T19:59:49.478Z,77.27
2023-01-10T20:02:19.499Z,77.17
2023-01-10T20:04:48.606Z,77.34
2023-01-10T20:07:18.773Z,77.46
2023-01-10T20:09:49.146Z,77.72
2023-01-10T20:12:19.199Z,78.07
2023-01-10T20:14:51.792Z,78.65
2023-01-10T20:17:21.038Z,78.65
2023-01-10T20:19:49.885Z,78.81
2023-01-10T20:22:20.793Z,78.90
2023-01-10T20:24:51.468Z,78.86
2023-01-10T20:27:21.390Z,78.74
2023-01-10T20:29:51.318Z,78.42
2023-01-10T20:32:21.073Z,78.41
2023-01-10T20:34:50.845Z,78.41
2023-01-10T20:37:23.821Z,78.61
2023-01-10T20:39:53.941Z,78.64
2023-01-10T20:42:22.932Z,78.73
2023-01-10T20:44:51.791Z,78.94
2023-01-10T20:47:22.645Z,79.30
2023-01-10T20:49:52.012Z,79.30
2023-01-10T20:52:21.639Z,79.64
2023-01-10T20:54:50.519Z,79.69
2023-01-10T20:57:20.041Z,80.05
2023-01-10T20:59:49.653Z,80.57
2023-01-10T21:02:19.082Z,80.61
2023-01-10T21:04:50.659Z,80.81
2023-01-10T21:07:19.753Z,80.64
2023-01-10T21:09:50.377Z,80.53
2023-01-10T21:12:23.190Z,80.53
2023-01-10T21:14:53.475Z,80.51
2023-01-10T21:17:23.304Z,80.48
2023-01-10T21:19:53.373Z,80.54
2023-01-10T21:22:23.437Z,80.46
2023-01-10T21:24:53.089Z,80.19
2023-01-10T21:27:24.391Z,80.08
2023-01-10T21:29:54.348Z,80.18
2023-01-10T21:32:24.365Z,80.28
2023-01-10T21:34:53.498Z,80.33
2023-01-10T21:37:22.458Z,80.13
2023-01-10T21:39:53.702Z,80.11
2023-01-10T21:42:34.912Z,80.01
2023-01-10T21:45:06.878Z,79.70
2023-01-10T21:47:38.436Z,79.58
2023-01-10T21:50:10.876Z,79.63
2023-01-10T21:52:42.490Z,79.62
2023-01-10T21:55:14.231Z,79.51
2023-01-10T21:57:43.898Z,79.26
2023-01-10T22:00:14.886Z,79.33
2023-01-10T22:02:44.253Z,79.15
2023-01-10T22:05:13.951Z,79.14
2023-01-10T22:07:44.935Z,79.01
2023-01-10T22:10:14.817Z,78.81
2023-01-10T22:12:43.877Z,78.81
2023-01-10T22:15:13.795Z,78.67
2023-01-10T22:17:43.656Z,78.67
2023-01-10T22:20:13.418Z,78.38
2023-01-10T22:22:42.914Z,78.28
2023-01-10T22:25:11.851Z,78.12
2023-01-10T22:27:44.153Z,77.39
2023-01-10T22:30:13.360Z,77.39
2023-01-10T22:32:43.165Z,77.24
2023-01-10T22:35:14.585Z,76.42
2023-01-10T22:37:43.864Z,76.42
2023-01-10T22:40:13.042Z,76.32
2023-01-10T22:42:43.940Z,76.17
2023-01-10T22:45:13.112Z,75.67
2023-01-10T22:47:42.448Z,75.72
2023-01-10T22:50:13.838Z,75.72
2023-01-10T22:52:43.189Z,75.28
2023-01-10T22:55:12.951Z,75.28
2023-01-10T22:57:47.229Z,75.26
2023-01-10T23:00:14.870Z,75.20
2023-01-10T23:02:44.342Z,75.13
2023-01-10T23:05:13.732Z,75.31
2023-01-10T23:07:44.194Z,75.58
2023-01-10T23:10:29.123Z,75.58
2023-01-10T23:12:46.188Z,75.20
2023-01-10T23:15:17.713Z,74.97
2023-01-10T23:17:46.961Z,74.97
2023-01-10T23:20:17.493Z,75.04
2023-01-10T23:22:46.893Z,74.88
2023-01-10T23:25:16.828Z,74.70
2023-01-10T23:27:46.254Z,74.70
2023-01-10T23:30:15.903Z,74.74
2023-01-10T23:32:46.064Z,74.51
2023-01-10T23:35:15.688Z,74.51
2023-01-10T23:37:45.762Z,74.14
2023-01-10T23:40:14.698Z,74.48
2023-01-10T23:42:44.464Z,74.32
2023-01-10T23:45:14.367Z,74.14
2023-01-10T23:47:44.417Z,74.22
2023-01-10T23:50:13.972Z,74.25
2023-01-10T23:52:43.505Z,74.25
2023-01-10T23:55:13.865Z,74.09
2023-01-10T23:57:43.425Z,74.26
